AEA1683 LEMD-LTFM
Flight info
| Callsign | AEA1683 |
|---|---|
| Flight time | 3h 12m |
| Altitude | 40000 |
| Route | PINAR DCT SEGRE DCT BRITO DCT PISUS DCT PONEN DCT SEROX DCT VILAR DCT KARES DCT BISES DCT BCN/N0472F390 DCT DIPES/N0468F380 N725 OSPOK/N0465F370 DCT NOLVI/N0478F410 DCT ORKUM/N0489F430 DCT ELSAG DCT ALG DCT LUNAR DCT MOKTO DCT KAPPO DCT XAPAT DCT NUCRE/N0473F410 DCT GOKEL DCT LIMJA DCT TIRCA DCT OVVER DCT ADDER DCT PINDO DCT PEREN UN644 PIBOM/N0466F390 UN644 DIGTI UT162 DRAMO |
| Aircraft | B788/H-SDE3FGHIJ1J2J4J5M1P2RWXYZ/LB2D1 |
Departure
| Time | 2026-05-06 08:43 |
|---|---|
| Airport | Adolfo Suárez Madrid–Barajas Airport (LEMD) |
Arrival
| Time | 2026-05-06 11:56 |
|---|---|
| Airport | İstanbul Airport (LTFM) |
| Time | Latitude | Longitude | Altitude | Speed | Heading |
|---|---|---|---|---|---|
| 2026-05-06 08:23 | 40.46662 | -3.56832 | 1983 ft | 0 kts | 269° |
| 2026-05-06 08:28 | 40.46663 | -3.56831 | 1983 ft | 2 kts | 269° |
| 2026-05-06 08:28 | 40.46663 | -3.56798 | 1980 ft | 4 kts | 269° |
| 2026-05-06 08:28 | 40.46664 | -3.56762 | 1981 ft | 4 kts | 269° |
| 2026-05-06 08:29 | 40.46664 | -3.56734 | 1983 ft | 4 kts | 277° |
| 2026-05-06 08:29 | 40.46655 | -3.56710 | 1981 ft | 4 kts | 323° |
| 2026-05-06 08:29 | 40.46636 | -3.56706 | 1979 ft | 4 kts | 3° |
| 2026-05-06 08:29 | 40.46609 | -3.56708 | 1979 ft | 4 kts | 3° |
| 2026-05-06 08:30 | 40.46602 | -3.56709 | 1979 ft | 0 kts | 3° |
| 2026-05-06 08:32 | 40.46605 | -3.56709 | 1983 ft | 2 kts | 3° |
| 2026-05-06 08:32 | 40.46646 | -3.56706 | 1979 ft | 9 kts | 3° |
| 2026-05-06 08:32 | 40.46713 | -3.56701 | 1983 ft | 10 kts | 3° |
| 2026-05-06 08:32 | 40.46779 | -3.56693 | 1980 ft | 8 kts | 20° |
| 2026-05-06 08:33 | 40.46801 | -3.56647 | 1984 ft | 8 kts | 85° |
| 2026-05-06 08:33 | 40.46820 | -3.56573 | 1985 ft | 9 kts | 38° |
| 2026-05-06 08:33 | 40.46908 | -3.56550 | 1981 ft | 18 kts | 4° |
| 2026-05-06 08:33 | 40.47018 | -3.56551 | 1986 ft | 16 kts | 350° |
| 2026-05-06 08:34 | 40.47126 | -3.56608 | 1986 ft | 19 kts | 326° |
| 2026-05-06 08:34 | 40.47376 | -3.56854 | 1995 ft | 21 kts | 320° |
| 2026-05-06 08:34 | 40.47486 | -3.56969 | 1996 ft | 21 kts | 323° |
| 2026-05-06 08:35 | 40.47621 | -3.57105 | 2000 ft | 25 kts | 322° |
| 2026-05-06 08:35 | 40.47751 | -3.57235 | 2003 ft | 22 kts | 323° |
| 2026-05-06 08:35 | 40.47864 | -3.57352 | 2007 ft | 19 kts | 323° |
| 2026-05-06 08:35 | 40.47970 | -3.57462 | 2008 ft | 20 kts | 322° |
| 2026-05-06 08:36 | 40.48081 | -3.57578 | 2001 ft | 21 kts | 322° |
| 2026-05-06 08:36 | 40.48201 | -3.57698 | 2002 ft | 22 kts | 322° |
| 2026-05-06 08:36 | 40.48329 | -3.57825 | 1998 ft | 24 kts | 324° |
| 2026-05-06 08:36 | 40.48463 | -3.57944 | 1998 ft | 21 kts | 328° |
| 2026-05-06 08:37 | 40.48560 | -3.58021 | 2004 ft | 8 kts | 328° |
| 2026-05-06 08:37 | 40.48629 | -3.58050 | 2007 ft | 13 kts | 360° |
| 2026-05-06 08:37 | 40.48713 | -3.58049 | 2007 ft | 11 kts | 360° |
| 2026-05-06 08:37 | 40.48804 | -3.58049 | 2009 ft | 13 kts | 359° |
| 2026-05-06 08:38 | 40.48857 | -3.57975 | 2004 ft | 16 kts | 87° |
| 2026-05-06 08:38 | 40.48858 | -3.57785 | 1999 ft | 23 kts | 89° |
| 2026-05-06 08:38 | 40.48858 | -3.57566 | 1995 ft | 25 kts | 90° |
| 2026-05-06 08:38 | 40.48859 | -3.57337 | 1991 ft | 26 kts | 90° |
| 2026-05-06 08:39 | 40.48859 | -3.57096 | 1987 ft | 27 kts | 90° |
| 2026-05-06 08:39 | 40.48861 | -3.56846 | 1982 ft | 28 kts | 89° |
| 2026-05-06 08:39 | 40.48864 | -3.56589 | 1977 ft | 27 kts | 90° |
| 2026-05-06 08:39 | 40.48863 | -3.56387 | 1971 ft | 19 kts | 92° |
| 2026-05-06 08:40 | 40.48878 | -3.56264 | 1971 ft | 12 kts | 44° |
| 2026-05-06 08:40 | 40.48982 | -3.56246 | 1968 ft | 20 kts | 360° |
| 2026-05-06 08:40 | 40.49137 | -3.56246 | 1968 ft | 23 kts | 0° |
| 2026-05-06 08:40 | 40.49293 | -3.56246 | 1967 ft | 22 kts | 359° |
| 2026-05-06 08:41 | 40.49444 | -3.56248 | 1972 ft | 22 kts | 359° |
| 2026-05-06 08:41 | 40.49593 | -3.56249 | 1967 ft | 21 kts | 360° |
| 2026-05-06 08:41 | 40.49737 | -3.56250 | 1967 ft | 20 kts | 360° |
| 2026-05-06 08:41 | 40.49875 | -3.56251 | 1967 ft | 18 kts | 359° |
| 2026-05-06 08:42 | 40.49938 | -3.56192 | 1966 ft | 12 kts | 84° |
| 2026-05-06 08:42 | 40.49942 | -3.56062 | 1964 ft | 15 kts | 81° |
| 2026-05-06 08:42 | 40.49987 | -3.55956 | 1965 ft | 13 kts | 40° |
| 2026-05-06 08:42 | 40.50092 | -3.55921 | 1966 ft | 26 kts | 359° |
| 2026-05-06 08:43 | 40.50454 | -3.55924 | 1969 ft | 81 kts | 360° |
| 2026-05-06 08:43 | 40.51219 | -3.55928 | 1960 ft | 138 kts | 360° |
| 2026-05-06 08:43 | 40.52323 | -3.55932 | 2205 ft | 167 kts | 5° |
| 2026-05-06 08:43 | 40.53493 | -3.55906 | 3045 ft | 168 kts | 1° |
| 2026-05-06 08:44 | 40.54642 | -3.55623 | 3812 ft | 174 kts | 18° |
| 2026-05-06 08:44 | 40.55803 | -3.55097 | 4517 ft | 178 kts | 18° |
| 2026-05-06 08:44 | 40.57001 | -3.54640 | 5222 ft | 183 kts | 15° |
| 2026-05-06 08:44 | 40.58286 | -3.54193 | 5741 ft | 200 kts | 14° |
| 2026-05-06 08:45 | 40.59651 | -3.53543 | 6206 ft | 219 kts | 33° |
| 2026-05-06 08:45 | 40.60863 | -3.52192 | 6712 ft | 238 kts | 41° |
| 2026-05-06 08:45 | 40.62153 | -3.50705 | 7244 ft | 257 kts | 40° |
| 2026-05-06 08:45 | 40.63548 | -3.49146 | 7756 ft | 274 kts | 40° |
| 2026-05-06 08:46 | 40.65039 | -3.47492 | 8592 ft | 279 kts | 39° |
| 2026-05-06 08:46 | 40.66516 | -3.45845 | 9401 ft | 285 kts | 39° |
| 2026-05-06 08:46 | 40.68039 | -3.44139 | 10181 ft | 290 kts | 39° |
| 2026-05-06 08:46 | 40.69617 | -3.42373 | 10690 ft | 306 kts | 39° |
| 2026-05-06 08:47 | 40.71290 | -3.40501 | 11064 ft | 326 kts | 38° |
| 2026-05-06 08:47 | 40.73076 | -3.38503 | 11333 ft | 347 kts | 38° |
| 2026-05-06 08:47 | 40.74949 | -3.36403 | 11883 ft | 357 kts | 38° |
| 2026-05-06 08:47 | 40.76851 | -3.34265 | 12572 ft | 362 kts | 38° |
| 2026-05-06 08:48 | 40.78786 | -3.32091 | 13275 ft | 366 kts | 38° |
| 2026-05-06 08:48 | 40.80733 | -3.29903 | 13963 ft | 370 kts | 38° |
| 2026-05-06 08:48 | 40.82704 | -3.27687 | 14636 ft | 374 kts | 38° |
| 2026-05-06 08:48 | 40.84594 | -3.25305 | 15271 ft | 379 kts | 51° |
| 2026-05-06 08:49 | 40.85858 | -3.22217 | 15846 ft | 389 kts | 71° |
| 2026-05-06 08:49 | 40.86607 | -3.18735 | 16242 ft | 399 kts | 74° |
| 2026-05-06 08:49 | 40.87281 | -3.15152 | 16775 ft | 404 kts | 75° |
| 2026-05-06 08:49 | 40.87965 | -3.11528 | 17331 ft | 408 kts | 74° |
| 2026-05-06 08:50 | 40.88686 | -3.07934 | 17884 ft | 412 kts | 74° |
| 2026-05-06 08:50 | 40.89426 | -3.04261 | 18426 ft | 415 kts | 74° |
| 2026-05-06 08:50 | 40.90150 | -3.00552 | 18953 ft | 418 kts | 75° |
| 2026-05-06 08:50 | 40.90873 | -2.96811 | 19472 ft | 422 kts | 75° |
| 2026-05-06 08:51 | 40.91610 | -2.93045 | 19976 ft | 425 kts | 75° |
| 2026-05-06 08:51 | 40.92355 | -2.89253 | 20460 ft | 428 kts | 75° |
| 2026-05-06 08:51 | 40.93100 | -2.85433 | 20934 ft | 430 kts | 75° |
| 2026-05-06 08:51 | 40.93846 | -2.81585 | 21372 ft | 434 kts | 75° |
| 2026-05-06 08:52 | 40.94599 | -2.77700 | 21717 ft | 439 kts | 75° |
| 2026-05-06 08:52 | 40.95362 | -2.73759 | 22023 ft | 445 kts | 75° |
| 2026-05-06 08:52 | 40.96132 | -2.69782 | 22404 ft | 449 kts | 75° |
| 2026-05-06 08:52 | 40.96909 | -2.65755 | 22783 ft | 452 kts | 75° |
| 2026-05-06 08:53 | 40.97686 | -2.61716 | 23154 ft | 455 kts | 75° |
| 2026-05-06 08:53 | 40.98470 | -2.57633 | 23518 ft | 458 kts | 75° |
| 2026-05-06 08:53 | 40.99266 | -2.53476 | 23885 ft | 461 kts | 75° |
| 2026-05-06 08:53 | 41.00040 | -2.49413 | 24220 ft | 464 kts | 75° |
| 2026-05-06 08:54 | 41.00830 | -2.45263 | 24562 ft | 466 kts | 75° |
| 2026-05-06 08:54 | 41.01624 | -2.41091 | 24894 ft | 468 kts | 75° |
| 2026-05-06 08:54 | 41.02420 | -2.36900 | 25218 ft | 470 kts | 75° |
| 2026-05-06 08:54 | 41.03218 | -2.32688 | 25556 ft | 473 kts | 75° |
| 2026-05-06 08:55 | 41.04032 | -2.28400 | 25871 ft | 475 kts | 75° |
| 2026-05-06 08:55 | 41.04837 | -2.24150 | 26194 ft | 477 kts | 75° |
| 2026-05-06 08:55 | 41.05641 | -2.19881 | 26502 ft | 479 kts | 76° |
| 2026-05-06 08:55 | 41.06447 | -2.15591 | 26811 ft | 481 kts | 76° |
| 2026-05-06 08:56 | 41.07257 | -2.11282 | 27116 ft | 483 kts | 76° |
| 2026-05-06 08:56 | 41.08070 | -2.06950 | 27371 ft | 486 kts | 76° |
| 2026-05-06 08:56 | 41.08886 | -2.02576 | 27542 ft | 492 kts | 76° |
| 2026-05-06 08:56 | 41.09709 | -1.98147 | 27725 ft | 497 kts | 76° |
| 2026-05-06 08:57 | 41.10539 | -1.93675 | 27946 ft | 502 kts | 76° |
| 2026-05-06 08:57 | 41.11376 | -1.89167 | 28187 ft | 505 kts | 76° |
| 2026-05-06 08:57 | 41.12215 | -1.84628 | 28449 ft | 508 kts | 76° |
| 2026-05-06 08:57 | 41.13055 | -1.80064 | 28718 ft | 511 kts | 76° |
| 2026-05-06 08:58 | 41.13898 | -1.75476 | 28990 ft | 513 kts | 76° |
| 2026-05-06 08:58 | 41.14745 | -1.70866 | 29264 ft | 515 kts | 76° |
| 2026-05-06 08:58 | 41.15593 | -1.66236 | 29543 ft | 517 kts | 76° |
| 2026-05-06 08:58 | 41.16440 | -1.61596 | 29810 ft | 520 kts | 76° |
| 2026-05-06 08:59 | 41.17292 | -1.56916 | 30080 ft | 521 kts | 76° |
| 2026-05-06 08:59 | 41.18141 | -1.52238 | 30350 ft | 524 kts | 76° |
| 2026-05-06 08:59 | 41.18995 | -1.47530 | 30614 ft | 526 kts | 77° |
| 2026-05-06 08:59 | 41.19851 | -1.42803 | 30898 ft | 528 kts | 77° |
| 2026-05-06 09:00 | 41.20707 | -1.38053 | 31167 ft | 530 kts | 77° |
| 2026-05-06 09:00 | 41.21566 | -1.33282 | 31434 ft | 532 kts | 77° |
| 2026-05-06 09:00 | 41.22427 | -1.28492 | 31700 ft | 534 kts | 77° |
| 2026-05-06 09:00 | 41.23289 | -1.23684 | 31958 ft | 536 kts | 77° |
| 2026-05-06 09:01 | 41.24151 | -1.18858 | 32239 ft | 538 kts | 77° |
| 2026-05-06 09:01 | 41.25013 | -1.14018 | 32507 ft | 539 kts | 77° |
| 2026-05-06 09:01 | 41.25875 | -1.09167 | 32773 ft | 540 kts | 77° |
| 2026-05-06 09:01 | 41.26738 | -1.04301 | 33023 ft | 542 kts | 77° |
| 2026-05-06 09:02 | 41.27589 | -0.99487 | 33268 ft | 543 kts | 77° |
| 2026-05-06 09:02 | 41.28452 | -0.94593 | 33498 ft | 544 kts | 77° |
| 2026-05-06 09:02 | 41.29315 | -0.89685 | 33764 ft | 545 kts | 77° |
| 2026-05-06 09:02 | 41.30175 | -0.84782 | 34109 ft | 544 kts | 77° |
| 2026-05-06 09:03 | 41.31032 | -0.79886 | 34433 ft | 543 kts | 77° |
| 2026-05-06 09:03 | 41.31885 | -0.74997 | 34756 ft | 542 kts | 77° |
| 2026-05-06 09:03 | 41.32735 | -0.70111 | 35055 ft | 542 kts | 77° |
| 2026-05-06 09:03 | 41.33580 | -0.65239 | 35346 ft | 541 kts | 77° |
| 2026-05-06 09:04 | 41.34425 | -0.60358 | 35637 ft | 541 kts | 77° |
| 2026-05-06 09:04 | 41.35190 | -0.55460 | 35928 ft | 540 kts | 84° |
| 2026-05-06 09:04 | 41.35374 | -0.50495 | 36235 ft | 536 kts | 92° |
| 2026-05-06 09:04 | 41.35343 | -0.45526 | 36459 ft | 537 kts | 92° |
| 2026-05-06 09:05 | 41.35290 | -0.40549 | 36697 ft | 538 kts | 92° |
| 2026-05-06 09:05 | 41.35248 | -0.35575 | 37004 ft | 537 kts | 92° |
| 2026-05-06 09:05 | 41.35220 | -0.30619 | 37310 ft | 534 kts | 92° |
| 2026-05-06 09:05 | 41.35184 | -0.25681 | 37586 ft | 533 kts | 92° |
| 2026-05-06 09:06 | 41.35134 | -0.20756 | 37852 ft | 532 kts | 92° |
| 2026-05-06 09:06 | 41.35083 | -0.15840 | 38103 ft | 531 kts | 92° |
| 2026-05-06 09:06 | 41.35040 | -0.10996 | 38342 ft | 530 kts | 92° |
| 2026-05-06 09:06 | 41.34995 | -0.06091 | 38578 ft | 530 kts | 92° |
| 2026-05-06 09:07 | 41.34941 | -0.01191 | 38803 ft | 529 kts | 92° |
| 2026-05-06 09:07 | 41.34886 | 0.03707 | 39026 ft | 529 kts | 92° |
| 2026-05-06 09:07 | 41.34831 | 0.08600 | 39259 ft | 528 kts | 93° |
| 2026-05-06 09:07 | 41.34775 | 0.13486 | 39502 ft | 528 kts | 93° |
| 2026-05-06 09:08 | 41.34715 | 0.18368 | 39727 ft | 527 kts | 94° |
| 2026-05-06 09:08 | 41.34653 | 0.23247 | 39939 ft | 527 kts | 94° |
| 2026-05-06 09:08 | 41.34589 | 0.28138 | 39979 ft | 530 kts | 94° |
| 2026-05-06 09:09 | 41.34457 | 0.37858 | 39977 ft | 524 kts | 94° |
| 2026-05-06 09:09 | 41.34314 | 0.47553 | 39972 ft | 524 kts | 94° |
| 2026-05-06 09:10 | 41.34164 | 0.57266 | 39979 ft | 525 kts | 94° |
| 2026-05-06 09:10 | 41.34008 | 0.66981 | 39981 ft | 525 kts | 94° |
| 2026-05-06 09:11 | 41.33842 | 0.76696 | 39981 ft | 525 kts | 94° |
| 2026-05-06 09:11 | 41.33668 | 0.86416 | 39979 ft | 526 kts | 94° |
| 2026-05-06 09:12 | 41.33485 | 0.96158 | 39979 ft | 526 kts | 94° |
| 2026-05-06 09:12 | 41.33295 | 1.05884 | 39980 ft | 525 kts | 94° |
| 2026-05-06 09:13 | 41.33128 | 1.14012 | 39976 ft | 525 kts | 94° |
| 2026-05-06 09:13 | 41.32924 | 1.23723 | 39980 ft | 526 kts | 94° |
| 2026-05-06 09:14 | 41.32709 | 1.33461 | 39977 ft | 527 kts | 94° |
| 2026-05-06 09:14 | 41.32490 | 1.43139 | 39975 ft | 527 kts | 95° |
| 2026-05-06 09:15 | 41.32259 | 1.52879 | 39979 ft | 526 kts | 95° |
| 2026-05-06 09:15 | 41.32022 | 1.62605 | 39978 ft | 526 kts | 95° |
| 2026-05-06 09:16 | 41.31774 | 1.72344 | 39982 ft | 527 kts | 95° |
| 2026-05-06 09:16 | 41.31518 | 1.82097 | 39990 ft | 527 kts | 95° |
| 2026-05-06 09:17 | 41.31253 | 1.91826 | 39990 ft | 526 kts | 95° |
| 2026-05-06 09:17 | 41.30983 | 2.01468 | 39986 ft | 525 kts | 95° |
| 2026-05-06 09:18 | 41.30607 | 2.11154 | 40003 ft | 521 kts | 103° |
| 2026-05-06 09:18 | 41.29112 | 2.20563 | 40002 ft | 520 kts | 106° |
| 2026-05-06 09:19 | 41.27556 | 2.29953 | 40001 ft | 520 kts | 106° |
| 2026-05-06 09:19 | 41.26005 | 2.39331 | 40001 ft | 520 kts | 106° |
| 2026-05-06 09:20 | 41.24434 | 2.48720 | 40001 ft | 521 kts | 106° |
| 2026-05-06 09:20 | 41.22863 | 2.58112 | 39985 ft | 520 kts | 107° |
| 2026-05-06 09:21 | 41.21283 | 2.67464 | 39990 ft | 518 kts | 107° |
| 2026-05-06 09:21 | 41.19701 | 2.76806 | 39990 ft | 519 kts | 107° |
| 2026-05-06 09:22 | 41.18107 | 2.86158 | 39964 ft | 519 kts | 107° |
| 2026-05-06 09:22 | 41.16508 | 2.95487 | 39964 ft | 519 kts | 107° |
| 2026-05-06 09:23 | 41.14903 | 3.04810 | 39961 ft | 518 kts | 107° |
| 2026-05-06 09:23 | 41.13294 | 3.14112 | 39966 ft | 517 kts | 107° |
| 2026-05-06 09:24 | 41.11673 | 3.23422 | 39963 ft | 519 kts | 107° |
| 2026-05-06 09:24 | 41.10044 | 3.32744 | 39965 ft | 519 kts | 107° |
| 2026-05-06 09:25 | 41.08408 | 3.42051 | 39968 ft | 518 kts | 107° |
| 2026-05-06 09:25 | 41.06764 | 3.51355 | 39965 ft | 519 kts | 107° |
| 2026-05-06 09:26 | 41.05112 | 3.60662 | 39962 ft | 519 kts | 107° |
| 2026-05-06 09:26 | 41.03451 | 3.69972 | 39967 ft | 519 kts | 107° |
| 2026-05-06 09:27 | 41.01786 | 3.79266 | 39966 ft | 518 kts | 108° |
| 2026-05-06 09:27 | 41.00110 | 3.88550 | 39968 ft | 518 kts | 108° |
| 2026-05-06 09:28 | 40.98429 | 3.97814 | 39967 ft | 518 kts | 108° |
| 2026-05-06 09:28 | 40.96743 | 4.07064 | 39966 ft | 515 kts | 108° |
| 2026-05-06 09:29 | 40.95057 | 4.16266 | 39964 ft | 514 kts | 108° |
| 2026-05-06 09:29 | 40.93352 | 4.25527 | 39960 ft | 515 kts | 108° |
| 2026-05-06 09:30 | 40.91649 | 4.34737 | 39963 ft | 516 kts | 108° |
| 2026-05-06 09:30 | 40.89938 | 4.43943 | 39962 ft | 516 kts | 108° |
| 2026-05-06 09:31 | 40.88222 | 4.53148 | 39961 ft | 516 kts | 108° |
| 2026-05-06 09:31 | 40.86505 | 4.62353 | 39964 ft | 515 kts | 108° |
| 2026-05-06 09:32 | 40.85223 | 4.71682 | 39966 ft | 519 kts | 100° |
| 2026-05-06 09:32 | 40.84371 | 4.81148 | 39969 ft | 519 kts | 101° |
| 2026-05-06 09:33 | 40.83479 | 4.90594 | 39963 ft | 518 kts | 101° |
| 2026-05-06 09:33 | 40.82599 | 5.00023 | 39960 ft | 517 kts | 101° |
| 2026-05-06 09:34 | 40.81705 | 5.09426 | 39965 ft | 516 kts | 101° |
| 2026-05-06 09:34 | 40.80808 | 5.18822 | 39965 ft | 516 kts | 101° |
| 2026-05-06 09:35 | 40.79902 | 5.28218 | 39965 ft | 516 kts | 101° |
| 2026-05-06 09:35 | 40.78986 | 5.37628 | 39959 ft | 517 kts | 101° |
| 2026-05-06 09:36 | 40.78066 | 5.47014 | 39961 ft | 515 kts | 101° |
| 2026-05-06 09:36 | 40.77139 | 5.56369 | 39962 ft | 514 kts | 101° |
| 2026-05-06 09:37 | 40.76206 | 5.65718 | 39960 ft | 514 kts | 101° |
| 2026-05-06 09:37 | 40.75273 | 5.74992 | 39959 ft | 513 kts | 101° |
| 2026-05-06 09:38 | 40.74327 | 5.84311 | 39956 ft | 512 kts | 101° |
| 2026-05-06 09:38 | 40.73375 | 5.93624 | 39956 ft | 513 kts | 101° |
| 2026-05-06 09:39 | 40.72412 | 6.02944 | 39961 ft | 513 kts | 101° |
| 2026-05-06 09:39 | 40.71444 | 6.12245 | 39960 ft | 511 kts | 101° |
| 2026-05-06 09:40 | 40.70470 | 6.21510 | 39960 ft | 511 kts | 101° |
| 2026-05-06 09:40 | 40.68996 | 6.35422 | 39960 ft | 511 kts | 102° |
| 2026-05-06 09:41 | 40.68004 | 6.44686 | 39957 ft | 510 kts | 102° |
| 2026-05-06 09:41 | 40.67013 | 6.53874 | 39957 ft | 510 kts | 102° |
| 2026-05-06 09:42 | 40.66005 | 6.63142 | 39962 ft | 512 kts | 102° |
| 2026-05-06 09:42 | 40.64990 | 6.72420 | 39959 ft | 512 kts | 102° |
| 2026-05-06 09:43 | 40.63966 | 6.81691 | 39958 ft | 511 kts | 102° |
| 2026-05-06 09:43 | 40.62938 | 6.90940 | 39962 ft | 510 kts | 102° |
| 2026-05-06 09:44 | 40.61900 | 7.00194 | 39966 ft | 511 kts | 102° |
| 2026-05-06 09:44 | 40.60857 | 7.09441 | 39963 ft | 511 kts | 102° |
| 2026-05-06 09:45 | 40.59799 | 7.18750 | 39969 ft | 510 kts | 103° |
| 2026-05-06 09:45 | 40.58748 | 7.27920 | 39965 ft | 510 kts | 103° |
| 2026-05-06 09:46 | 40.57683 | 7.37152 | 39966 ft | 511 kts | 103° |
| 2026-05-06 09:46 | 40.56640 | 7.46399 | 39980 ft | 513 kts | 98° |
| 2026-05-06 09:47 | 40.56640 | 7.51108 | 39987 ft | 519 kts | 86° |
| 2026-05-06 09:47 | 40.57039 | 7.55834 | 39968 ft | 520 kts | 86° |
| 2026-05-06 09:47 | 40.57879 | 7.65329 | 39965 ft | 519 kts | 86° |
| 2026-05-06 09:48 | 40.58677 | 7.74755 | 39965 ft | 518 kts | 86° |
| 2026-05-06 09:48 | 40.59483 | 7.84184 | 39965 ft | 519 kts | 86° |
| 2026-05-06 09:49 | 40.60273 | 7.93614 | 39964 ft | 518 kts | 87° |
| 2026-05-06 09:49 | 40.61060 | 8.03035 | 39963 ft | 518 kts | 87° |
| 2026-05-06 09:50 | 40.61839 | 8.12460 | 39969 ft | 517 kts | 87° |
| 2026-05-06 09:50 | 40.62610 | 8.21876 | 39969 ft | 517 kts | 87° |
| 2026-05-06 09:51 | 40.63076 | 8.31297 | 39962 ft | 516 kts | 90° |
| 2026-05-06 09:51 | 40.63459 | 8.40735 | 39970 ft | 516 kts | 90° |
| 2026-05-06 09:52 | 40.63807 | 8.50173 | 39974 ft | 516 kts | 90° |
| 2026-05-06 09:52 | 40.64161 | 8.59613 | 39966 ft | 516 kts | 90° |
| 2026-05-06 09:53 | 40.64501 | 8.69036 | 39960 ft | 514 kts | 90° |
| 2026-05-06 09:53 | 40.64835 | 8.78444 | 39963 ft | 515 kts | 90° |
| 2026-05-06 09:54 | 40.65161 | 8.87852 | 39966 ft | 514 kts | 90° |
| 2026-05-06 09:54 | 40.65424 | 8.95651 | 39964 ft | 513 kts | 90° |
| 2026-05-06 09:55 | 40.65785 | 9.06543 | 39964 ft | 512 kts | 91° |
| 2026-05-06 09:55 | 40.66086 | 9.15922 | 39971 ft | 512 kts | 90° |
| 2026-05-06 09:56 | 40.66334 | 9.23787 | 39963 ft | 513 kts | 91° |
| 2026-05-06 09:56 | 40.66620 | 9.33123 | 39963 ft | 513 kts | 90° |
| 2026-05-06 09:57 | 40.66901 | 9.42508 | 39966 ft | 512 kts | 91° |
| 2026-05-06 09:57 | 40.67173 | 9.51876 | 39966 ft | 512 kts | 91° |
| 2026-05-06 09:58 | 40.67438 | 9.61239 | 39966 ft | 512 kts | 91° |
| 2026-05-06 09:58 | 40.67695 | 9.70605 | 39964 ft | 511 kts | 91° |
| 2026-05-06 09:59 | 40.67943 | 9.79945 | 39961 ft | 510 kts | 91° |
| 2026-05-06 09:59 | 40.68185 | 9.89298 | 39967 ft | 511 kts | 91° |
| 2026-05-06 10:00 | 40.68420 | 9.98661 | 39964 ft | 512 kts | 91° |
| 2026-05-06 10:00 | 40.68646 | 10.08016 | 39963 ft | 509 kts | 91° |
| 2026-05-06 10:01 | 40.68864 | 10.17323 | 39963 ft | 508 kts | 91° |
| 2026-05-06 10:01 | 40.69073 | 10.26574 | 39967 ft | 509 kts | 91° |
| 2026-05-06 10:02 | 40.69277 | 10.35900 | 39966 ft | 509 kts | 91° |
| 2026-05-06 10:02 | 40.69472 | 10.45228 | 39964 ft | 509 kts | 91° |
| 2026-05-06 10:03 | 40.69660 | 10.54544 | 39963 ft | 509 kts | 91° |
| 2026-05-06 10:03 | 40.69841 | 10.63869 | 39965 ft | 508 kts | 91° |
| 2026-05-06 10:04 | 40.70014 | 10.73170 | 39977 ft | 507 kts | 91° |
| 2026-05-06 10:04 | 40.70179 | 10.82458 | 39976 ft | 507 kts | 91° |
| 2026-05-06 10:05 | 40.70337 | 10.91748 | 39982 ft | 507 kts | 91° |
| 2026-05-06 10:05 | 40.70487 | 11.01020 | 39981 ft | 505 kts | 91° |
| 2026-05-06 10:06 | 40.70629 | 11.10292 | 39985 ft | 506 kts | 91° |
| 2026-05-06 10:06 | 40.70765 | 11.19568 | 39988 ft | 506 kts | 91° |
| 2026-05-06 10:07 | 40.70892 | 11.28830 | 40003 ft | 505 kts | 91° |
| 2026-05-06 10:07 | 40.71012 | 11.38086 | 40003 ft | 505 kts | 92° |
| 2026-05-06 10:08 | 40.71125 | 11.47338 | 40002 ft | 505 kts | 92° |
| 2026-05-06 10:08 | 40.71230 | 11.56574 | 40002 ft | 504 kts | 92° |
| 2026-05-06 10:09 | 40.71328 | 11.65815 | 40001 ft | 503 kts | 92° |
| 2026-05-06 10:09 | 40.71418 | 11.75024 | 40001 ft | 503 kts | 92° |
| 2026-05-06 10:10 | 40.71501 | 11.84260 | 40002 ft | 504 kts | 92° |
| 2026-05-06 10:10 | 40.71576 | 11.93449 | 40004 ft | 505 kts | 92° |
| 2026-05-06 10:11 | 40.71645 | 12.02703 | 40004 ft | 504 kts | 92° |
| 2026-05-06 10:11 | 40.71706 | 12.11930 | 40003 ft | 502 kts | 92° |
| 2026-05-06 10:12 | 40.71759 | 12.21135 | 40002 ft | 502 kts | 92° |
| 2026-05-06 10:12 | 40.71805 | 12.30332 | 40013 ft | 502 kts | 92° |
| 2026-05-06 10:13 | 40.71844 | 12.39544 | 40014 ft | 503 kts | 92° |
| 2026-05-06 10:13 | 40.71875 | 12.48753 | 40014 ft | 503 kts | 92° |
| 2026-05-06 10:14 | 40.71899 | 12.57916 | 40016 ft | 503 kts | 92° |
| 2026-05-06 10:14 | 40.71916 | 12.67140 | 40016 ft | 502 kts | 92° |
| 2026-05-06 10:15 | 40.71926 | 12.76338 | 40015 ft | 501 kts | 92° |
| 2026-05-06 10:15 | 40.71928 | 12.85522 | 40014 ft | 501 kts | 92° |
| 2026-05-06 10:16 | 40.71923 | 12.94702 | 40019 ft | 501 kts | 92° |
| 2026-05-06 10:16 | 40.71910 | 13.03886 | 40024 ft | 502 kts | 92° |
| 2026-05-06 10:17 | 40.71891 | 13.13089 | 40025 ft | 502 kts | 92° |
| 2026-05-06 10:17 | 40.71864 | 13.22286 | 40025 ft | 501 kts | 93° |
| 2026-05-06 10:18 | 40.71830 | 13.31465 | 40023 ft | 500 kts | 93° |
| 2026-05-06 10:18 | 40.71788 | 13.40680 | 40020 ft | 500 kts | 93° |
| 2026-05-06 10:19 | 40.71739 | 13.49849 | 40021 ft | 501 kts | 93° |
| 2026-05-06 10:19 | 40.71684 | 13.59036 | 40024 ft | 502 kts | 93° |
| 2026-05-06 10:20 | 40.71620 | 13.68241 | 40025 ft | 503 kts | 93° |
| 2026-05-06 10:20 | 40.71550 | 13.77442 | 40025 ft | 501 kts | 93° |
| 2026-05-06 10:21 | 40.71472 | 13.86621 | 40023 ft | 500 kts | 93° |
| 2026-05-06 10:21 | 40.71387 | 13.95788 | 40021 ft | 500 kts | 93° |
| 2026-05-06 10:22 | 40.71294 | 14.04946 | 40020 ft | 501 kts | 93° |
| 2026-05-06 10:22 | 40.71195 | 14.14148 | 40022 ft | 502 kts | 93° |
| 2026-05-06 10:23 | 40.71088 | 14.23302 | 40020 ft | 503 kts | 93° |
| 2026-05-06 10:23 | 40.70974 | 14.32509 | 40024 ft | 502 kts | 93° |
| 2026-05-06 10:24 | 40.70852 | 14.41688 | 40023 ft | 501 kts | 93° |
| 2026-05-06 10:24 | 40.70723 | 14.50862 | 40021 ft | 500 kts | 93° |
| 2026-05-06 10:25 | 40.70587 | 14.60037 | 40022 ft | 501 kts | 93° |
| 2026-05-06 10:25 | 40.70444 | 14.69229 | 40023 ft | 502 kts | 93° |
| 2026-05-06 10:26 | 40.70293 | 14.78426 | 40023 ft | 502 kts | 93° |
| 2026-05-06 10:26 | 40.70136 | 14.87558 | 40023 ft | 500 kts | 93° |
| 2026-05-06 10:27 | 40.69971 | 14.96718 | 40020 ft | 500 kts | 93° |
| 2026-05-06 10:27 | 40.69799 | 15.05880 | 40020 ft | 500 kts | 93° |
| 2026-05-06 10:28 | 40.69620 | 15.15054 | 40025 ft | 501 kts | 93° |
| 2026-05-06 10:28 | 40.69433 | 15.24226 | 40033 ft | 500 kts | 93° |
| 2026-05-06 10:29 | 40.69239 | 15.33376 | 40035 ft | 500 kts | 93° |
| 2026-05-06 10:29 | 40.69024 | 15.42538 | 40041 ft | 500 kts | 96° |
| 2026-05-06 10:30 | 40.68690 | 15.51698 | 40046 ft | 501 kts | 94° |
| 2026-05-06 10:30 | 40.68363 | 15.60924 | 40054 ft | 500 kts | 95° |
| 2026-05-06 10:31 | 40.68003 | 15.70068 | 40044 ft | 499 kts | 94° |
| 2026-05-06 10:31 | 40.67663 | 15.79209 | 40046 ft | 500 kts | 95° |
| 2026-05-06 10:32 | 40.67294 | 15.88343 | 40043 ft | 500 kts | 94° |
| 2026-05-06 10:32 | 40.66933 | 15.97489 | 40054 ft | 500 kts | 95° |
| 2026-05-06 10:33 | 40.66555 | 16.06627 | 40044 ft | 500 kts | 94° |
| 2026-05-06 10:33 | 40.66176 | 16.15780 | 40037 ft | 501 kts | 94° |
| 2026-05-06 10:34 | 40.65785 | 16.24931 | 40043 ft | 500 kts | 94° |
| 2026-05-06 10:34 | 40.65390 | 16.34079 | 40067 ft | 501 kts | 94° |
| 2026-05-06 10:35 | 40.64985 | 16.43244 | 40078 ft | 501 kts | 94° |
| 2026-05-06 10:35 | 40.64574 | 16.52416 | 40076 ft | 502 kts | 95° |
| 2026-05-06 10:36 | 40.64157 | 16.61535 | 40077 ft | 502 kts | 95° |
| 2026-05-06 10:36 | 40.63731 | 16.70701 | 40075 ft | 501 kts | 95° |
| 2026-05-06 10:37 | 40.63298 | 16.79858 | 40068 ft | 501 kts | 95° |
| 2026-05-06 10:37 | 40.62858 | 16.89008 | 40073 ft | 502 kts | 94° |
| 2026-05-06 10:38 | 40.62409 | 16.98181 | 40076 ft | 503 kts | 94° |
| 2026-05-06 10:38 | 40.61953 | 17.07363 | 40076 ft | 503 kts | 94° |
| 2026-05-06 10:39 | 40.61491 | 17.16541 | 40076 ft | 502 kts | 94° |
| 2026-05-06 10:39 | 40.61442 | 17.25730 | 40078 ft | 502 kts | 90° |
| 2026-05-06 10:40 | 40.61415 | 17.34864 | 40078 ft | 503 kts | 90° |
| 2026-05-06 10:40 | 40.61396 | 17.44064 | 40078 ft | 503 kts | 90° |
| 2026-05-06 10:41 | 40.61361 | 17.53266 | 40078 ft | 503 kts | 90° |
| 2026-05-06 10:41 | 40.61323 | 17.62468 | 40079 ft | 503 kts | 90° |
| 2026-05-06 10:42 | 40.61276 | 17.71672 | 40068 ft | 504 kts | 90° |
| 2026-05-06 10:42 | 40.61222 | 17.80908 | 40065 ft | 504 kts | 90° |
| 2026-05-06 10:43 | 40.61171 | 17.88639 | 40065 ft | 504 kts | 90° |
| 2026-05-06 10:44 | 40.61066 | 18.02469 | 40055 ft | 504 kts | 90° |
| 2026-05-06 10:44 | 40.60982 | 18.11678 | 40051 ft | 503 kts | 90° |
| 2026-05-06 10:45 | 40.60893 | 18.20863 | 40048 ft | 502 kts | 90° |
| 2026-05-06 10:45 | 40.60795 | 18.30064 | 40049 ft | 503 kts | 90° |
| 2026-05-06 10:46 | 40.60709 | 18.39275 | 40055 ft | 504 kts | 90° |
| 2026-05-06 10:46 | 40.60602 | 18.48493 | 40061 ft | 503 kts | 90° |
| 2026-05-06 10:47 | 40.60477 | 18.57693 | 40059 ft | 502 kts | 90° |
| 2026-05-06 10:47 | 40.60354 | 18.66876 | 40052 ft | 501 kts | 90° |
| 2026-05-06 10:48 | 40.60217 | 18.76051 | 40065 ft | 502 kts | 90° |
| 2026-05-06 10:48 | 40.60077 | 18.85299 | 40076 ft | 502 kts | 90° |
| 2026-05-06 10:49 | 40.59927 | 18.94483 | 40075 ft | 502 kts | 90° |
| 2026-05-06 10:49 | 40.59628 | 19.03652 | 40076 ft | 502 kts | 93° |
| 2026-05-06 10:50 | 40.59182 | 19.12742 | 40079 ft | 502 kts | 93° |
| 2026-05-06 10:50 | 40.58688 | 19.21898 | 40079 ft | 502 kts | 93° |
| 2026-05-06 10:51 | 40.58201 | 19.31063 | 40079 ft | 503 kts | 93° |
| 2026-05-06 10:51 | 40.57703 | 19.40236 | 40081 ft | 503 kts | 93° |
| 2026-05-06 10:52 | 40.57195 | 19.49408 | 40082 ft | 503 kts | 93° |
| 2026-05-06 10:52 | 40.56683 | 19.58575 | 40086 ft | 502 kts | 93° |
| 2026-05-06 10:53 | 40.56156 | 19.67733 | 40087 ft | 502 kts | 93° |
| 2026-05-06 10:53 | 40.55627 | 19.76882 | 40087 ft | 501 kts | 93° |
| 2026-05-06 10:54 | 40.55089 | 19.86008 | 40107 ft | 501 kts | 93° |
| 2026-05-06 10:54 | 40.54540 | 19.95154 | 40106 ft | 502 kts | 93° |
| 2026-05-06 10:55 | 40.53983 | 20.04312 | 40118 ft | 503 kts | 93° |
| 2026-05-06 10:55 | 40.53435 | 20.13493 | 40119 ft | 504 kts | 93° |
| 2026-05-06 10:56 | 40.52871 | 20.22670 | 40118 ft | 504 kts | 93° |
| 2026-05-06 10:56 | 40.52305 | 20.31839 | 40115 ft | 503 kts | 93° |
| 2026-05-06 10:57 | 40.51719 | 20.40992 | 40116 ft | 503 kts | 93° |
| 2026-05-06 10:57 | 40.51127 | 20.50156 | 40115 ft | 503 kts | 93° |
| 2026-05-06 10:58 | 40.50528 | 20.59316 | 40114 ft | 503 kts | 93° |
| 2026-05-06 10:58 | 40.49921 | 20.68481 | 40115 ft | 504 kts | 93° |
| 2026-05-06 10:59 | 40.49306 | 20.77662 | 40116 ft | 505 kts | 93° |
| 2026-05-06 10:59 | 40.48683 | 20.86853 | 40116 ft | 506 kts | 93° |
| 2026-05-06 11:00 | 40.48134 | 20.96050 | 40134 ft | 504 kts | 85° |
| 2026-05-06 11:00 | 40.48574 | 21.05225 | 40116 ft | 504 kts | 83° |
| 2026-05-06 11:01 | 40.49043 | 21.14404 | 40108 ft | 504 kts | 84° |
| 2026-05-06 11:01 | 40.49490 | 21.23587 | 40108 ft | 503 kts | 83° |
| 2026-05-06 11:02 | 40.49941 | 21.32716 | 40109 ft | 505 kts | 84° |
| 2026-05-06 11:02 | 40.50377 | 21.41926 | 40112 ft | 505 kts | 83° |
| 2026-05-06 11:03 | 40.50814 | 21.51140 | 40110 ft | 505 kts | 84° |
| 2026-05-06 11:03 | 40.51239 | 21.60357 | 40111 ft | 505 kts | 84° |
| 2026-05-06 11:04 | 40.51660 | 21.69580 | 40109 ft | 506 kts | 84° |
| 2026-05-06 11:04 | 40.52072 | 21.78824 | 40111 ft | 507 kts | 84° |
| 2026-05-06 11:05 | 40.52477 | 21.88050 | 40110 ft | 506 kts | 84° |
| 2026-05-06 11:05 | 40.52874 | 21.97267 | 40108 ft | 505 kts | 84° |
| 2026-05-06 11:06 | 40.53264 | 22.06483 | 40097 ft | 505 kts | 84° |
| 2026-05-06 11:06 | 40.53644 | 22.15643 | 40097 ft | 505 kts | 84° |
| 2026-05-06 11:07 | 40.54020 | 22.24866 | 40088 ft | 506 kts | 84° |
| 2026-05-06 11:07 | 40.54388 | 22.34105 | 40078 ft | 506 kts | 84° |
| 2026-05-06 11:08 | 40.54749 | 22.43331 | 40078 ft | 505 kts | 84° |
| 2026-05-06 11:08 | 40.55102 | 22.52543 | 40060 ft | 504 kts | 84° |
| 2026-05-06 11:09 | 40.55446 | 22.61738 | 40052 ft | 503 kts | 84° |
| 2026-05-06 11:09 | 40.55784 | 22.70922 | 40066 ft | 503 kts | 84° |
| 2026-05-06 11:10 | 40.56116 | 22.80167 | 40065 ft | 502 kts | 84° |
| 2026-05-06 11:10 | 40.56438 | 22.89343 | 40048 ft | 502 kts | 84° |
| 2026-05-06 11:11 | 40.56752 | 22.98502 | 40049 ft | 502 kts | 84° |
| 2026-05-06 11:11 | 40.57060 | 23.07677 | 40051 ft | 502 kts | 84° |
| 2026-05-06 11:12 | 40.57359 | 23.16845 | 40056 ft | 501 kts | 84° |
| 2026-05-06 11:12 | 40.57652 | 23.26006 | 40051 ft | 501 kts | 84° |
| 2026-05-06 11:13 | 40.57937 | 23.35159 | 40044 ft | 501 kts | 84° |
| 2026-05-06 11:13 | 40.58215 | 23.44311 | 40051 ft | 501 kts | 84° |
| 2026-05-06 11:14 | 40.58486 | 23.53470 | 40055 ft | 502 kts | 84° |
| 2026-05-06 11:14 | 40.58750 | 23.62645 | 40059 ft | 502 kts | 84° |
| 2026-05-06 11:15 | 40.59006 | 23.71820 | 40059 ft | 502 kts | 84° |
| 2026-05-06 11:15 | 40.59255 | 23.80982 | 40061 ft | 501 kts | 84° |
| 2026-05-06 11:16 | 40.59498 | 23.90146 | 40069 ft | 501 kts | 84° |
| 2026-05-06 11:16 | 40.60233 | 23.99121 | 40089 ft | 493 kts | 68° |
| 2026-05-06 11:17 | 40.62241 | 24.07712 | 40058 ft | 489 kts | 68° |
| 2026-05-06 11:17 | 40.64249 | 24.16241 | 40080 ft | 489 kts | 68° |
| 2026-05-06 11:18 | 40.66246 | 24.24805 | 40083 ft | 489 kts | 68° |
| 2026-05-06 11:18 | 40.68246 | 24.33377 | 40083 ft | 490 kts | 68° |
| 2026-05-06 11:19 | 40.70233 | 24.41953 | 40085 ft | 489 kts | 68° |
| 2026-05-06 11:19 | 40.72214 | 24.50516 | 40083 ft | 488 kts | 69° |
| 2026-05-06 11:20 | 40.74182 | 24.59065 | 40082 ft | 487 kts | 69° |
| 2026-05-06 11:20 | 40.76140 | 24.67600 | 40082 ft | 486 kts | 69° |
| 2026-05-06 11:21 | 40.78091 | 24.76137 | 40080 ft | 486 kts | 69° |
| 2026-05-06 11:21 | 40.80041 | 24.84682 | 40080 ft | 487 kts | 69° |
| 2026-05-06 11:22 | 40.81969 | 24.93182 | 40081 ft | 486 kts | 69° |
| 2026-05-06 11:22 | 40.83903 | 25.01730 | 40081 ft | 485 kts | 69° |
| 2026-05-06 11:23 | 40.85827 | 25.10271 | 40080 ft | 485 kts | 69° |
| 2026-05-06 11:23 | 40.87743 | 25.18804 | 40079 ft | 484 kts | 69° |
| 2026-05-06 11:24 | 40.89654 | 25.27350 | 40081 ft | 485 kts | 70° |
| 2026-05-06 11:24 | 40.91564 | 25.35921 | 40083 ft | 486 kts | 70° |
| 2026-05-06 11:25 | 40.93469 | 25.44486 | 40083 ft | 485 kts | 70° |
| 2026-05-06 11:25 | 40.95363 | 25.53040 | 40083 ft | 484 kts | 70° |
| 2026-05-06 11:26 | 40.97250 | 25.61593 | 40081 ft | 484 kts | 70° |
| 2026-05-06 11:26 | 40.99130 | 25.70148 | 40081 ft | 484 kts | 70° |
| 2026-05-06 11:27 | 41.00998 | 25.78687 | 39647 ft | 482 kts | 70° |
| 2026-05-06 11:27 | 41.01615 | 25.81512 | 39272 ft | 482 kts | 70° |
| 2026-05-06 11:27 | 41.02545 | 25.85778 | 38721 ft | 482 kts | 70° |
| 2026-05-06 11:27 | 41.03475 | 25.90056 | 38022 ft | 485 kts | 70° |
| 2026-05-06 11:28 | 41.04409 | 25.94354 | 37350 ft | 486 kts | 70° |
| 2026-05-06 11:28 | 41.05340 | 25.98660 | 36647 ft | 483 kts | 70° |
| 2026-05-06 11:28 | 41.06266 | 26.02945 | 35351 ft | 485 kts | 70° |
| 2026-05-06 11:28 | 41.07203 | 26.07274 | 34191 ft | 487 kts | 70° |
| 2026-05-06 11:29 | 41.08126 | 26.11566 | 33459 ft | 486 kts | 70° |
| 2026-05-06 11:29 | 41.09054 | 26.15888 | 32653 ft | 488 kts | 70° |
| 2026-05-06 11:29 | 41.09984 | 26.20227 | 31848 ft | 490 kts | 70° |
| 2026-05-06 11:29 | 41.10905 | 26.24579 | 31062 ft | 491 kts | 73° |
| 2026-05-06 11:30 | 41.11419 | 26.29073 | 30269 ft | 496 kts | 84° |
| 2026-05-06 11:30 | 41.11307 | 26.33663 | 29489 ft | 501 kts | 95° |
| 2026-05-06 11:30 | 41.10560 | 26.38187 | 28700 ft | 505 kts | 106° |
| 2026-05-06 11:30 | 41.09287 | 26.42526 | 27923 ft | 505 kts | 110° |
| 2026-05-06 11:31 | 41.07948 | 26.46820 | 27135 ft | 503 kts | 110° |
| 2026-05-06 11:31 | 41.06598 | 26.51089 | 26365 ft | 501 kts | 110° |
| 2026-05-06 11:31 | 41.05256 | 26.55338 | 25608 ft | 499 kts | 110° |
| 2026-05-06 11:31 | 41.04109 | 26.59618 | 25164 ft | 486 kts | 101° |
| 2026-05-06 11:32 | 41.03575 | 26.63950 | 24784 ft | 471 kts | 90° |
| 2026-05-06 11:32 | 41.03582 | 26.68179 | 24269 ft | 461 kts | 85° |
| 2026-05-06 11:32 | 41.03663 | 26.72340 | 23790 ft | 445 kts | 85° |
| 2026-05-06 11:32 | 41.03744 | 26.76405 | 23336 ft | 438 kts | 85° |
| 2026-05-06 11:33 | 41.03821 | 26.80410 | 22880 ft | 432 kts | 85° |
| 2026-05-06 11:33 | 41.03891 | 26.84319 | 22447 ft | 420 kts | 85° |
| 2026-05-06 11:33 | 41.03960 | 26.88169 | 22014 ft | 414 kts | 85° |
| 2026-05-06 11:33 | 41.03901 | 26.91951 | 21594 ft | 409 kts | 90° |
| 2026-05-06 11:34 | 41.03753 | 26.95698 | 21168 ft | 404 kts | 89° |
| 2026-05-06 11:34 | 41.03634 | 26.99379 | 20755 ft | 398 kts | 89° |
| 2026-05-06 11:34 | 41.03504 | 27.03028 | 20342 ft | 393 kts | 90° |
| 2026-05-06 11:34 | 41.03360 | 27.06610 | 19939 ft | 388 kts | 90° |
| 2026-05-06 11:35 | 41.03220 | 27.10147 | 19540 ft | 382 kts | 89° |
| 2026-05-06 11:35 | 41.03089 | 27.13636 | 19147 ft | 377 kts | 89° |
| 2026-05-06 11:35 | 41.02957 | 27.17091 | 18758 ft | 374 kts | 89° |
| 2026-05-06 11:35 | 41.02822 | 27.20524 | 18372 ft | 372 kts | 89° |
| 2026-05-06 11:36 | 41.02686 | 27.23938 | 17989 ft | 370 kts | 89° |
| 2026-05-06 11:36 | 41.02551 | 27.27334 | 17608 ft | 368 kts | 89° |
| 2026-05-06 11:36 | 41.02416 | 27.30711 | 17216 ft | 366 kts | 89° |
| 2026-05-06 11:36 | 41.02282 | 27.34023 | 16855 ft | 364 kts | 89° |
| 2026-05-06 11:37 | 41.02146 | 27.37357 | 16478 ft | 361 kts | 89° |
| 2026-05-06 11:37 | 41.02010 | 27.40674 | 16110 ft | 360 kts | 89° |
| 2026-05-06 11:37 | 41.01875 | 27.43974 | 15734 ft | 358 kts | 89° |
| 2026-05-06 11:37 | 41.01738 | 27.47260 | 15362 ft | 356 kts | 89° |
| 2026-05-06 11:38 | 41.01602 | 27.50526 | 15000 ft | 355 kts | 90° |
| 2026-05-06 11:38 | 41.01465 | 27.53768 | 14607 ft | 353 kts | 89° |
| 2026-05-06 11:38 | 41.01328 | 27.56994 | 14181 ft | 348 kts | 89° |
| 2026-05-06 11:38 | 41.01190 | 27.60216 | 13808 ft | 344 kts | 89° |
| 2026-05-06 11:39 | 41.01056 | 27.63380 | 13449 ft | 343 kts | 89° |
| 2026-05-06 11:39 | 41.00920 | 27.66514 | 13086 ft | 341 kts | 89° |
| 2026-05-06 11:39 | 41.00784 | 27.69636 | 12735 ft | 339 kts | 89° |
| 2026-05-06 11:39 | 41.00648 | 27.72743 | 12384 ft | 337 kts | 89° |
| 2026-05-06 11:40 | 41.00512 | 27.75836 | 12032 ft | 336 kts | 89° |
| 2026-05-06 11:40 | 41.00376 | 27.78914 | 11689 ft | 334 kts | 89° |
| 2026-05-06 11:40 | 41.00239 | 27.81981 | 11337 ft | 333 kts | 89° |
| 2026-05-06 11:40 | 41.00102 | 27.85035 | 10998 ft | 331 kts | 89° |
| 2026-05-06 11:41 | 40.99966 | 27.88044 | 10658 ft | 323 kts | 89° |
| 2026-05-06 11:41 | 40.99831 | 27.90980 | 10325 ft | 316 kts | 89° |
| 2026-05-06 11:41 | 40.99703 | 27.93846 | 10007 ft | 308 kts | 91° |
| 2026-05-06 11:41 | 40.99575 | 27.96635 | 9689 ft | 299 kts | 91° |
| 2026-05-06 11:42 | 40.99449 | 27.99336 | 9378 ft | 290 kts | 91° |
| 2026-05-06 11:42 | 40.99328 | 28.01955 | 9083 ft | 280 kts | 91° |
| 2026-05-06 11:42 | 40.99211 | 28.04504 | 8802 ft | 276 kts | 91° |
| 2026-05-06 11:42 | 40.99093 | 28.07032 | 8522 ft | 275 kts | 91° |
| 2026-05-06 11:43 | 40.98975 | 28.09550 | 8240 ft | 273 kts | 91° |
| 2026-05-06 11:43 | 40.98856 | 28.12055 | 7971 ft | 272 kts | 91° |
| 2026-05-06 11:43 | 40.98738 | 28.14549 | 7678 ft | 271 kts | 91° |
| 2026-05-06 11:44 | 40.98502 | 28.19505 | 7122 ft | 269 kts | 92° |
| 2026-05-06 11:44 | 40.98384 | 28.21965 | 6846 ft | 268 kts | 92° |
| 2026-05-06 11:44 | 40.98265 | 28.24425 | 6571 ft | 267 kts | 92° |
| 2026-05-06 11:44 | 40.98147 | 28.26859 | 6434 ft | 267 kts | 92° |
| 2026-05-06 11:45 | 40.98028 | 28.29299 | 6315 ft | 265 kts | 92° |
| 2026-05-06 11:45 | 40.97909 | 28.31734 | 6192 ft | 265 kts | 92° |
| 2026-05-06 11:45 | 40.97790 | 28.34162 | 6063 ft | 264 kts | 92° |
| 2026-05-06 11:45 | 40.97671 | 28.36583 | 5938 ft | 264 kts | 92° |
| 2026-05-06 11:46 | 40.97574 | 28.38999 | 5821 ft | 262 kts | 88° |
| 2026-05-06 11:46 | 40.97631 | 28.41412 | 5679 ft | 263 kts | 89° |
| 2026-05-06 11:46 | 40.97590 | 28.43827 | 5565 ft | 262 kts | 90° |
| 2026-05-06 11:46 | 40.97572 | 28.46237 | 5438 ft | 262 kts | 89° |
| 2026-05-06 11:47 | 40.97584 | 28.48632 | 5306 ft | 256 kts | 88° |
| 2026-05-06 11:47 | 40.97595 | 28.50929 | 5210 ft | 243 kts | 89° |
| 2026-05-06 11:47 | 40.97597 | 28.53135 | 5100 ft | 238 kts | 89° |
| 2026-05-06 11:47 | 40.97599 | 28.55276 | 5005 ft | 227 kts | 89° |
| 2026-05-06 11:48 | 40.97601 | 28.57293 | 5006 ft | 212 kts | 89° |
| 2026-05-06 11:48 | 40.97603 | 28.59188 | 4998 ft | 200 kts | 89° |
| 2026-05-06 11:48 | 40.97605 | 28.61010 | 4996 ft | 198 kts | 88° |
| 2026-05-06 11:48 | 40.97606 | 28.62811 | 4990 ft | 196 kts | 89° |
| 2026-05-06 11:49 | 40.97607 | 28.64612 | 4988 ft | 195 kts | 89° |
| 2026-05-06 11:49 | 40.97608 | 28.66413 | 4989 ft | 196 kts | 89° |
| 2026-05-06 11:49 | 40.97608 | 28.68214 | 4990 ft | 196 kts | 89° |
| 2026-05-06 11:49 | 40.97609 | 28.70014 | 4993 ft | 195 kts | 89° |
| 2026-05-06 11:50 | 40.97790 | 28.71755 | 4955 ft | 194 kts | 63° |
| 2026-05-06 11:50 | 40.98724 | 28.72977 | 4965 ft | 192 kts | 23° |
| 2026-05-06 11:50 | 41.00026 | 28.73222 | 4997 ft | 190 kts | 1° |
| 2026-05-06 11:50 | 41.01354 | 28.73246 | 5006 ft | 190 kts | 359° |
| 2026-05-06 11:51 | 41.02694 | 28.73227 | 4863 ft | 196 kts | 359° |
| 2026-05-06 11:51 | 41.04075 | 28.73200 | 4605 ft | 200 kts | 359° |
| 2026-05-06 11:51 | 41.05477 | 28.73173 | 4336 ft | 203 kts | 359° |
| 2026-05-06 11:51 | 41.06901 | 28.73145 | 4064 ft | 206 kts | 359° |
| 2026-05-06 11:52 | 41.08337 | 28.73118 | 3792 ft | 207 kts | 359° |
| 2026-05-06 11:52 | 41.09776 | 28.73092 | 3521 ft | 206 kts | 359° |
| 2026-05-06 11:52 | 41.11214 | 28.73064 | 3243 ft | 207 kts | 359° |
| 2026-05-06 11:52 | 41.12635 | 28.73036 | 2964 ft | 197 kts | 359° |
| 2026-05-06 11:53 | 41.13957 | 28.73016 | 2719 ft | 183 kts | 359° |
| 2026-05-06 11:53 | 41.15211 | 28.72990 | 2475 ft | 180 kts | 358° |
| 2026-05-06 11:53 | 41.16459 | 28.72964 | 2244 ft | 181 kts | 358° |
| 2026-05-06 11:53 | 41.17694 | 28.72940 | 1993 ft | 172 kts | 358° |
| 2026-05-06 11:54 | 41.18858 | 28.72913 | 1771 ft | 164 kts | 359° |
| 2026-05-06 11:54 | 41.19984 | 28.72888 | 1553 ft | 159 kts | 1° |
| 2026-05-06 11:54 | 41.21071 | 28.72875 | 1352 ft | 153 kts | 3° |
| 2026-05-06 11:54 | 41.22121 | 28.72854 | 1158 ft | 149 kts | 6° |
| 2026-05-06 11:55 | 41.23160 | 28.72846 | 950 ft | 145 kts | 5° |
| 2026-05-06 11:55 | 41.24126 | 28.72831 | 763 ft | 137 kts | 2° |
| 2026-05-06 11:55 | 41.25082 | 28.72799 | 586 ft | 136 kts | 2° |
| 2026-05-06 11:55 | 41.26026 | 28.72778 | 405 ft | 136 kts | 2° |
| 2026-05-06 11:56 | 41.26955 | 28.72765 | 312 ft | 126 kts | 0° |
| 2026-05-06 11:56 | 41.27570 | 28.72749 | 296 ft | 52 kts | 0° |
| 2026-05-06 11:56 | 41.27840 | 28.72749 | 285 ft | 31 kts | 1° |
| 2026-05-06 11:56 | 41.28025 | 28.72807 | 281 ft | 23 kts | 25° |
| 2026-05-06 11:57 | 41.28129 | 28.72894 | 283 ft | 12 kts | 63° |
| 2026-05-06 11:57 | 41.28101 | 28.72960 | 282 ft | 10 kts | 161° |
| 2026-05-06 11:57 | 41.28005 | 28.72969 | 286 ft | 17 kts | 178° |
| 2026-05-06 11:57 | 41.27876 | 28.72972 | 290 ft | 18 kts | 180° |
| 2026-05-06 11:58 | 41.27760 | 28.72973 | 298 ft | 16 kts | 179° |
| 2026-05-06 11:58 | 41.27658 | 28.72974 | 300 ft | 14 kts | 179° |
| 2026-05-06 11:58 | 41.27566 | 28.72976 | 306 ft | 14 kts | 179° |
| 2026-05-06 11:58 | 41.27473 | 28.72978 | 306 ft | 13 kts | 179° |
| 2026-05-06 11:59 | 41.27366 | 28.72981 | 308 ft | 20 kts | 178° |
| 2026-05-06 11:59 | 41.27230 | 28.72984 | 313 ft | 19 kts | 180° |
| 2026-05-06 11:59 | 41.27097 | 28.72986 | 314 ft | 19 kts | 179° |
| 2026-05-06 11:59 | 41.26965 | 28.72989 | 314 ft | 17 kts | 178° |
| 2026-05-06 12:00 | 41.26878 | 28.73019 | 315 ft | 13 kts | 125° |
| 2026-05-06 12:00 | 41.26866 | 28.73164 | 316 ft | 16 kts | 89° |
| 2026-05-06 12:00 | 41.26868 | 28.73302 | 319 ft | 14 kts | 88° |
| 2026-05-06 12:00 | 41.26872 | 28.73438 | 319 ft | 15 kts | 88° |
| 2026-05-06 12:01 | 41.26832 | 28.73532 | 319 ft | 10 kts | 171° |
| 2026-05-06 12:01 | 41.26794 | 28.73534 | 319 ft | 2 kts | 180° |
| 2026-05-06 12:01 | 41.26792 | 28.73534 | 319 ft | 0 kts | 180° |